createdAt,value
2024-04-08T00:01:37.330Z,3.43
2024-04-08T00:04:45.634Z,3.20
2024-04-08T00:07:53.212Z,2.93
2024-04-08T00:11:09.392Z,3.10
2024-04-08T00:14:15.240Z,3.07
2024-04-08T00:17:23.847Z,3.27
2024-04-08T00:20:29.669Z,2.80
2024-04-08T00:23:38.903Z,2.23
2024-04-08T00:26:47.661Z,3.10
2024-04-08T00:29:56.794Z,2.87
2024-04-08T00:33:05.356Z,3.00
2024-04-08T00:36:10.882Z,2.73
2024-04-08T00:39:21.758Z,2.57
2024-04-08T00:42:30.271Z,2.47
2024-04-08T00:45:40.865Z,2.60
2024-04-08T00:48:48.316Z,2.80
2024-04-08T00:51:56.883Z,2.97
2024-04-08T00:55:02.529Z,2.90
2024-04-08T00:58:13.925Z,2.63
2024-04-08T01:01:20.764Z,3.57
2024-04-08T01:04:30.007Z,3.83
2024-04-08T01:07:36.164Z,2.90
2024-04-08T01:10:45.182Z,3.30
2024-04-08T01:13:54.042Z,2.83
2024-04-08T01:17:02.560Z,2.50
2024-04-08T01:20:09.143Z,2.80
2024-04-08T01:23:19.437Z,2.40
2024-04-08T01:26:27.989Z,3.33
2024-04-08T01:29:37.225Z,4.60
2024-04-08T01:32:45.882Z,2.80
2024-04-08T01:35:51.629Z,3.03
2024-04-08T01:39:00.220Z,24.37
2024-04-08T01:42:08.668Z,29.13
2024-04-08T01:45:17.391Z,6.50
2024-04-08T01:48:23.150Z,3.43
2024-04-08T01:51:31.482Z,3.30
2024-04-08T01:54:36.905Z,2.57
2024-04-08T01:57:50.337Z,2.77
2024-04-08T02:00:56.225Z,3.43
2024-04-08T02:04:04.555Z,2.60
2024-04-08T02:07:10.367Z,2.50
2024-04-08T02:10:19.619Z,2.70
2024-04-08T02:13:31.220Z,2.83
2024-04-08T02:16:37.585Z,2.83
2024-04-08T02:19:46.559Z,2.90
2024-04-08T02:22:52.553Z,2.93
2024-04-08T02:26:01.824Z,3.00
2024-04-08T02:29:12.716Z,3.10
2024-04-08T02:32:18.413Z,8.87
2024-04-08T02:35:27.261Z,11.00
2024-04-08T02:38:33.377Z,7.53
2024-04-08T02:41:41.980Z,19.67
2024-04-08T02:44:50.576Z,4.60
2024-04-08T02:48:01.554Z,10.10
2024-04-08T02:51:07.105Z,6.97
2024-04-08T02:54:15.645Z,20.70
2024-04-08T02:57:21.268Z,29.60
2024-04-08T03:00:32.496Z,24.57
2024-04-08T03:03:38.059Z,17.33
2024-04-08T03:06:46.530Z,9.23
2024-04-08T03:09:52.849Z,9.27
2024-04-08T03:13:01.534Z,9.90
2024-04-08T03:16:12.573Z,11.83
2024-04-08T03:19:21.221Z,12.27
2024-04-08T03:22:27.352Z,5.77
2024-04-08T03:25:35.919Z,4.77
2024-04-08T03:28:41.740Z,6.40
2024-04-08T03:31:52.901Z,4.60
2024-04-08T03:35:01.400Z,4.20
2024-04-08T03:38:10.220Z,6.77
2024-04-08T03:41:18.580Z,9.23
2024-04-08T03:44:27.384Z,4.60
2024-04-08T03:47:38.771Z,8.83
2024-04-08T03:50:47.209Z,12.77
2024-04-08T03:53:56.051Z,8.93
2024-04-08T03:57:01.391Z,6.03
2024-04-08T04:00:12.173Z,6.60
2024-04-08T04:03:20.421Z,18.77
2024-04-08T04:06:29.560Z,17.83
2024-04-08T04:09:38.156Z,15.57
2024-04-08T04:12:43.820Z,13.03
2024-04-08T04:15:52.588Z,11.07
2024-04-08T04:19:01.168Z,9.67
2024-04-08T04:22:09.661Z,14.33
2024-04-08T04:25:18.629Z,13.20
2024-04-08T04:28:24.244Z,14.07
2024-04-08T04:31:46.537Z,6.20
2024-04-08T04:35:13.959Z,6.77
2024-04-08T04:38:22.469Z,15.50
2024-04-08T04:41:30.600Z,14.97
2024-04-08T04:44:36.374Z,18.70
2024-04-08T04:47:45.389Z,15.93
2024-04-08T04:50:53.972Z,10.07
2024-04-08T04:54:02.413Z,12.67
2024-04-08T04:57:07.802Z,12.60
2024-04-08T05:00:17.600Z,12.47
2024-04-08T05:03:26.923Z,13.93
2024-04-08T05:06:35.029Z,13.13
2024-04-08T05:09:43.515Z,11.23
2024-04-08T05:12:49.115Z,11.03
2024-04-08T05:16:01.673Z,11.33
2024-04-08T05:19:07.514Z,13.13
2024-04-08T05:22:21.286Z,12.17
2024-04-08T05:25:27.045Z,11.93
2024-04-08T05:28:35.612Z,8.67
2024-04-08T05:31:41.756Z,8.53
2024-04-08T05:34:50.586Z,8.13
2024-04-08T05:37:59.478Z,8.73
2024-04-08T05:41:08.613Z,6.13
2024-04-08T05:44:14.645Z,4.23
2024-04-08T05:47:23.456Z,6.10
2024-04-08T05:50:31.991Z,5.80
2024-04-08T05:53:40.382Z,4.80
2024-04-08T05:56:48.809Z,7.30
2024-04-08T05:59:54.478Z,7.13
2024-04-08T06:03:02.758Z,5.77
2024-04-08T06:06:08.968Z,4.77
2024-04-08T06:09:20.156Z,4.57
2024-04-08T06:12:29.151Z,4.47
2024-04-08T06:15:35.349Z,5.23
2024-04-08T06:18:43.511Z,3.77
2024-04-08T06:21:53.443Z,3.83
2024-04-08T06:25:01.950Z,3.93
2024-04-08T06:28:10.305Z,3.30
2024-04-08T06:31:15.784Z,3.63
2024-04-08T06:34:24.528Z,3.63
2024-04-08T06:37:32.979Z,3.40
2024-04-08T06:40:45.046Z,3.10
2024-04-08T06:43:53.783Z,3.57
2024-04-08T06:46:59.841Z,4.10
2024-04-08T06:50:08.890Z,3.70
2024-04-08T06:53:14.523Z,3.90
2024-04-08T06:56:25.723Z,2.83
2024-04-08T06:59:34.227Z,2.70
2024-04-08T07:02:39.981Z,2.40
2024-04-08T07:05:50.355Z,2.10
2024-04-08T07:08:55.959Z,2.20
2024-04-08T07:12:07.089Z,2.57
2024-04-08T07:15:14.277Z,2.40
2024-04-08T07:18:22.687Z,3.00
2024-04-08T07:21:28.029Z,2.27
2024-04-08T07:24:36.376Z,2.30
2024-04-08T07:27:44.386Z,2.30
2024-04-08T07:30:52.581Z,2.73
2024-04-08T07:33:57.995Z,2.70
2024-04-08T07:37:06.428Z,1.77
2024-04-08T07:40:15.401Z,2.40
2024-04-08T07:43:26.565Z,2.20
2024-04-08T07:46:35.222Z,2.23
2024-04-08T07:49:41.287Z,2.13
2024-04-08T07:52:50.385Z,2.20
2024-04-08T07:55:56.144Z,1.90
2024-04-08T07:59:07.806Z,1.83
2024-04-08T08:02:13.378Z,1.90
2024-04-08T08:05:22.176Z,2.50
2024-04-08T08:08:30.792Z,1.90
2024-04-08T08:11:39.698Z,1.90
2024-04-08T08:14:50.708Z,1.77
2024-04-08T08:17:59.115Z,1.50
2024-04-08T08:21:08.350Z,1.50
2024-04-08T08:24:16.591Z,1.30
2024-04-08T08:27:24.889Z,1.20
2024-04-08T08:30:39.877Z,1.40
2024-04-08T08:33:48.287Z,1.17
2024-04-08T08:36:56.634Z,1.20
2024-04-08T08:40:05.073Z,1.33
2024-04-08T08:43:10.643Z,1.83
2024-04-08T08:46:25.125Z,1.40
2024-04-08T08:49:31.242Z,1.60
2024-04-08T08:52:39.994Z,2.03
2024-04-08T08:55:49.337Z,1.23
2024-04-08T08:58:59.117Z,1.50
2024-04-08T09:02:14.505Z,1.60
2024-04-08T09:05:20.159Z,1.00
2024-04-08T09:08:28.765Z,1.17
2024-04-08T09:11:37.325Z,1.13
2024-04-08T09:14:44.104Z,1.10
2024-04-08T09:17:54.961Z,0.93
2024-04-08T09:21:00.933Z,1.30
2024-04-08T09:24:10.319Z,1.27
2024-04-08T09:27:16.137Z,1.10
2024-04-08T09:30:24.779Z,1.10
2024-04-08T09:33:33.650Z,2.33
2024-04-08T09:36:43.407Z,1.10
2024-04-08T09:39:52.955Z,1.40
2024-04-08T09:43:02.496Z,1.30
2024-04-08T09:46:09.653Z,1.63
2024-04-08T09:49:25.900Z,1.33
2024-04-08T09:52:33.639Z,1.80
2024-04-08T09:55:47.583Z,1.60
2024-04-08T09:59:09.910Z,1.37
2024-04-08T10:02:17.210Z,1.50
2024-04-08T10:05:29.623Z,1.20
2024-04-08T10:08:35.497Z,2.87
2024-04-08T10:11:48.524Z,1.50
2024-04-08T10:14:57.184Z,1.30
2024-04-08T10:18:02.825Z,1.00
2024-04-08T10:21:14.126Z,1.10
2024-04-08T10:24:38.590Z,2.10
2024-04-08T10:27:48.256Z,1.03
2024-04-08T10:30:58.165Z,1.30
2024-04-08T10:34:06.265Z,1.20
2024-04-08T10:37:17.422Z,1.17
2024-04-08T10:40:24.298Z,1.00
2024-04-08T10:43:33.217Z,1.23
2024-04-08T10:46:38.982Z,1.30
2024-04-08T10:49:48.231Z,1.03
2024-04-08T10:52:57.104Z,1.40
2024-04-08T10:56:05.935Z,1.60
2024-04-08T10:59:11.593Z,1.20
2024-04-08T11:02:20.301Z,1.43
2024-04-08T11:05:27.312Z,1.40
2024-04-08T11:08:38.422Z,1.25
2024-04-08T11:11:47.881Z,1.27
2024-04-08T11:14:53.675Z,1.23
2024-04-08T11:18:03.117Z,1.55
2024-04-08T11:21:09.674Z,1.70
2024-04-08T11:24:20.980Z,1.40
2024-04-08T11:27:27.439Z,1.60
2024-04-08T11:30:39.677Z,1.33
2024-04-08T11:33:45.218Z,1.40
2024-04-08T11:36:53.489Z,1.13
2024-04-08T11:40:02.454Z,1.30
2024-04-08T11:43:11.070Z,1.20
2024-04-08T11:46:19.303Z,1.17
2024-04-08T11:49:28.186Z,1.67
2024-04-08T11:52:37.604Z,1.13
2024-04-08T11:55:46.463Z,1.10
2024-04-08T11:58:55.155Z,1.20
2024-04-08T12:02:00.712Z,1.00
2024-04-08T12:05:09.983Z,1.00
2024-04-08T12:08:18.708Z,1.00
2024-04-08T12:11:27.507Z,0.90
2024-04-08T12:14:35.966Z,0.93
2024-04-08T12:17:44.553Z,0.97
2024-04-08T12:20:50.150Z,0.80
2024-04-08T12:23:58.970Z,0.90
2024-04-08T12:27:10.120Z,1.00
2024-04-08T12:30:15.553Z,1.00
2024-04-08T12:33:24.214Z,3.47
2024-04-08T12:36:30.810Z,2.10
2024-04-08T12:39:39.964Z,0.80
2024-04-08T12:42:48.347Z,1.20
2024-04-08T12:45:56.823Z,1.00
2024-04-08T12:49:05.289Z,1.10
2024-04-08T12:52:11.232Z,1.23
2024-04-08T12:55:20.540Z,1.00
2024-04-08T12:58:29.416Z,1.00
2024-04-08T13:05:00.714Z,1.67
2024-04-08T13:08:11.637Z,1.17
2024-04-08T13:11:20.613Z,1.20
2024-04-08T13:14:32.264Z,2.85
2024-04-08T13:17:40.594Z,0.85
2024-04-08T13:20:49.637Z,1.00
2024-04-08T13:23:55.071Z,2.42
2024-04-08T13:27:03.756Z,1.00
2024-04-08T13:30:16.648Z,1.13
2024-04-08T13:33:22.375Z,1.10
2024-04-08T13:36:31.268Z,1.55
2024-04-08T13:39:42.931Z,1.10
2024-04-08T13:42:48.826Z,1.13
2024-04-08T13:46:00.645Z,1.60
2024-04-08T13:49:09.251Z,1.20
2024-04-08T13:52:17.797Z,1.00
2024-04-08T13:55:26.450Z,1.10
2024-04-08T13:58:32.067Z,1.20
2024-04-08T14:01:43.039Z,1.20
2024-04-08T14:04:51.342Z,1.10
2024-04-08T14:07:56.733Z,1.50
2024-04-08T14:11:05.228Z,1.30
2024-04-08T14:14:10.557Z,1.20
2024-04-08T14:17:21.673Z,1.00
2024-04-08T14:20:27.581Z,1.40
2024-04-08T14:23:36.237Z,1.13
2024-04-08T14:26:42.354Z,1.23
2024-04-08T14:29:55.824Z,1.10
2024-04-08T14:33:11.703Z,1.40
2024-04-08T14:36:17.308Z,1.00
2024-04-08T14:39:33.352Z,1.20
2024-04-08T14:42:43.702Z,3.87
2024-04-08T14:45:52.402Z,7.43
2024-04-08T14:49:00.865Z,6.03
2024-04-08T14:52:11.547Z,1.53
2024-04-08T14:55:20.002Z,1.57
2024-04-08T14:58:37.136Z,1.30
2024-04-08T15:01:52.502Z,1.47
2024-04-08T15:05:00.892Z,2.90
2024-04-08T15:08:09.751Z,8.00
2024-04-08T15:11:15.567Z,2.20
2024-04-08T15:14:24.504Z,1.70
2024-04-08T15:17:30.367Z,2.50
2024-04-08T15:20:41.418Z,2.20
2024-04-08T15:23:47.068Z,2.33
2024-04-08T15:26:55.256Z,2.13
2024-04-08T15:30:01.153Z,3.10
2024-04-08T15:33:09.905Z,5.13
2024-04-08T15:36:18.383Z,2.23
2024-04-08T15:39:27.123Z,7.00
2024-04-08T15:42:33.120Z,10.90
2024-04-08T15:45:41.842Z,4.50
2024-04-08T15:48:47.758Z,6.40
2024-04-08T15:52:01.063Z,16.07
2024-04-08T15:55:09.719Z,27.27
2024-04-08T15:58:16.284Z,5.47
2024-04-08T16:01:24.761Z,4.77
2024-04-08T16:04:30.882Z,2.30
2024-04-08T16:07:42.339Z,2.77
2024-04-08T16:10:50.033Z,2.30
2024-04-08T16:13:58.127Z,1.80
2024-04-08T16:17:05.114Z,1.67
2024-04-08T16:20:13.722Z,1.90
2024-04-08T16:23:33.387Z,2.37
2024-04-08T16:26:50.313Z,2.40
2024-04-08T16:29:56.290Z,2.33
2024-04-08T16:33:05.303Z,1.63
2024-04-08T16:36:11.347Z,1.67
2024-04-08T16:39:22.483Z,6.57
2024-04-08T16:42:28.284Z,7.60
2024-04-08T16:45:36.966Z,5.70
2024-04-08T16:48:45.731Z,11.50
2024-04-08T16:51:55.387Z,12.23
2024-04-08T16:55:03.752Z,9.40
2024-04-08T16:58:12.481Z,8.93
2024-04-08T17:01:20.828Z,11.63
2024-04-08T17:04:29.382Z,9.20
2024-04-08T17:07:36.574Z,8.77
2024-04-08T17:10:47.997Z,13.17
2024-04-08T17:13:57.449Z,12.23
2024-04-08T17:17:03.214Z,8.83
2024-04-08T17:20:13.028Z,11.40
2024-04-08T17:23:18.818Z,12.20
2024-04-08T17:26:30.015Z,11.90
2024-04-08T17:29:38.137Z,20.00
2024-04-08T17:32:46.643Z,14.10
2024-04-08T17:35:56.730Z,12.50
2024-04-08T17:39:06.023Z,12.50
2024-04-08T17:42:19.234Z,18.20
2024-04-08T17:45:26.448Z,15.17
2024-04-08T17:48:36.899Z,10.77
2024-04-08T17:51:42.922Z,23.73
2024-04-08T17:54:55.171Z,17.97
2024-04-08T17:58:03.486Z,19.57
2024-04-08T18:01:15.720Z,14.20
2024-04-08T18:04:25.866Z,21.27
2024-04-08T18:07:34.269Z,14.47
2024-04-08T18:10:41.557Z,9.27
2024-04-08T18:13:53.120Z,8.30
2024-04-08T18:16:58.852Z,11.23
2024-04-08T18:20:07.497Z,10.67
2024-04-08T18:23:13.552Z,8.63
2024-04-08T18:26:24.785Z,13.90
2024-04-08T18:29:33.941Z,16.23
2024-04-08T18:32:42.386Z,11.53
2024-04-08T18:35:50.972Z,11.73
2024-04-08T18:39:00.140Z,11.57
2024-04-08T18:42:06.301Z,7.47
2024-04-08T18:45:17.270Z,6.50
2024-04-08T18:48:23.388Z,10.17
2024-04-08T18:51:32.058Z,11.90
2024-04-08T18:54:44.510Z,23.07
2024-04-08T18:57:50.496Z,11.33
2024-04-08T19:01:07.483Z,6.00
2024-04-08T19:04:22.213Z,3.40
2024-04-08T19:07:28.693Z,5.00
2024-04-08T19:10:37.882Z,6.40
2024-04-08T19:13:47.802Z,12.30
2024-04-08T19:16:58.442Z,6.70
2024-04-08T19:20:07.877Z,6.00
2024-04-08T19:23:13.402Z,10.43
2024-04-08T19:26:21.881Z,14.13
2024-04-08T19:29:30.154Z,19.37
2024-04-08T19:32:39.070Z,28.80
2024-04-08T19:35:47.861Z,16.07
2024-04-08T19:38:55.846Z,15.07
2024-04-08T19:42:01.396Z,8.53
2024-04-08T19:45:19.108Z,5.97
2024-04-08T19:48:31.074Z,4.40
2024-04-08T19:51:39.866Z,6.33
2024-04-08T19:54:46.317Z,8.70
2024-04-08T19:57:54.482Z,21.40
2024-04-08T20:01:05.645Z,10.67
2024-04-08T20:04:20.258Z,12.43
2024-04-08T20:07:25.971Z,5.27
2024-04-08T20:10:36.854Z,3.77
2024-04-08T20:13:43.441Z,8.90
2024-04-08T20:16:52.342Z,4.57
2024-04-08T20:20:06.266Z,2.83
2024-04-08T20:23:12.067Z,3.07
2024-04-08T20:26:20.686Z,8.73
2024-04-08T20:29:26.553Z,7.00
2024-04-08T20:32:35.222Z,10.33
2024-04-08T20:35:43.511Z,10.57
2024-04-08T20:38:52.875Z,4.20
2024-04-08T20:41:58.770Z,5.03
2024-04-08T20:45:07.944Z,5.50
2024-04-08T20:48:14.215Z,6.53
2024-04-08T20:51:25.971Z,3.57
2024-04-08T20:54:34.290Z,4.07
2024-04-08T20:57:39.940Z,3.23
2024-04-08T21:00:49.048Z,4.10
2024-04-08T21:03:57.446Z,4.27
2024-04-08T21:07:08.593Z,2.93
2024-04-08T21:10:17.067Z,5.37
2024-04-08T21:13:22.958Z,4.77
2024-04-08T21:16:32.012Z,6.30
2024-04-08T21:19:37.893Z,3.40
2024-04-08T21:22:49.138Z,2.70
2024-04-08T21:25:55.108Z,4.00
2024-04-08T21:29:03.775Z,4.07
2024-04-08T21:32:09.880Z,2.50
2024-04-08T21:35:18.484Z,3.80
2024-04-08T21:38:27.908Z,4.07
2024-04-08T21:41:36.374Z,2.63
2024-04-08T21:44:42.290Z,3.00
2024-04-08T21:47:51.470Z,2.70
2024-04-08T21:50:59.253Z,3.50
2024-04-08T21:54:10.616Z,2.43
2024-04-08T21:57:16.477Z,3.07
2024-04-08T22:00:29.205Z,2.40
2024-04-08T22:03:35.563Z,3.27
2024-04-08T22:06:44.385Z,2.57
2024-04-08T22:09:55.463Z,2.57
2024-04-08T22:13:01.618Z,3.73
2024-04-08T22:16:10.896Z,3.03
2024-04-08T22:19:16.614Z,3.83
2024-04-08T22:22:24.961Z,4.70
2024-04-08T22:25:33.162Z,4.67
2024-04-08T22:28:41.678Z,2.70
2024-04-08T22:31:47.165Z,3.67
2024-04-08T22:34:55.834Z,3.07
2024-04-08T22:38:03.960Z,8.13
2024-04-08T22:41:18.607Z,5.33
2024-04-08T22:44:29.684Z,3.20
2024-04-08T22:47:38.523Z,2.60
2024-04-08T22:50:44.438Z,3.73
2024-04-08T22:53:52.851Z,3.60
2024-04-08T22:57:01.097Z,3.07
2024-04-08T23:00:10.967Z,2.80
2024-04-08T23:03:17.024Z,2.50
2024-04-08T23:06:25.872Z,2.40
2024-04-08T23:09:31.787Z,2.43
2024-04-08T23:12:46.416Z,2.30
2024-04-08T23:15:52.743Z,2.30
2024-04-08T23:19:01.611Z,2.13
2024-04-08T23:22:07.269Z,2.43
2024-04-08T23:25:15.592Z,2.90
2024-04-08T23:28:24.006Z,2.70
2024-04-08T23:31:32.778Z,8.63
2024-04-08T23:34:38.934Z,2.70
2024-04-08T23:37:47.758Z,2.27
2024-04-08T23:40:56.247Z,3.60
2024-04-08T23:44:06.356Z,2.83
2024-04-08T23:47:15.499Z,2.60
2024-04-08T23:50:21.172Z,2.97
2024-04-08T23:53:29.705Z,2.40
2024-04-08T23:56:35.680Z,2.43
2024-04-08T23:59:47.237Z,2.60
